Zaoyang, China
Current Conditions -  °F | °C
As of 3:00 AM on Sunday 26 Oct 2014 (Local Time) from ZHHH Reporting Station
Haze Haze  
Wind Chill: 63°   Ceiling: Unl
Heat Index: 63°   Visibility: 2.5mi
Dew Point: 59°   Wind: 4mph
Humidity: 88%   Direction: 80°E
Pressure: 29.97"   Gusts: NA
Location:  32.13°N, 112.75°E
Report Text: ZHHH 251900Z 08002MPS 4000 BR NSC 17/15 Q1015 NOSIG
Loading
Personal Weather Stations






























Interactive Weather Map
Tropical Storm Tracking
New forecast layout! Learn more

10-Day Weather Forecast

Advertisements
Track Severe Weather on mobile